AirportContent of METAR report
LYBEMETAR LYBE 251700Z 01006KT CAVOK 16/08 Q1023 NOSIG=
LYBTMETAR LYBT 251700Z 31010KT CAVOK 16/07 Q1022 NOSIG=
LYKVMETAR LYKV 251700Z 31004KT 270V350 9999 VCSH FEW037TCU BKN040 16/08 Q1023 TEMPO 5000 SHRA=
LYNIMETAR LYNI 251700Z 32011KT 9999 FEW050 17/05 Q1022 NOSIG=
LYVRMETAR LYVR 251700Z AUTO 28006KT 250V320 CAVOK 15/11 Q1022=
LYUZMETAR LYUZ 251700Z 32003KT 260V010 9999 FEW017TCU SCT020 09/06 Q1024 RETS=
LYPGMETAR LYPG 251700Z 01010KT CAVOK 24/M01 Q1020 NOSIG=
LYTVMETAR LYTV 251700Z VRB02KT CAVOK 22/06 Q1019 NOSIG=

Data loaded: 2020-05-25 17:05:35 UTC

METAR, TAF, AIRMET, GAMET, SIGMET

Important note: MET information on these web pages are informative and restricted to aeronautical users, must not be used for any commercial purpose, and do not replace flight documentation.